Time;durP1;ratioP1;P1;durP2;ratioP2;P2;SDS_P1;SDS_P2;PMS_P1;PMS_P2;Temp;Humidity;BMP_temperature;BMP_pressure;BME280_temperature;BME280_humidity;BME280_pressure;Samples;Min_cycle;Max_cycle;Signal;HPM_P1;HPM_P2
2021/11/08 00:01:47;;;;;;;14.75;2.78;;;;;;;;;;5050242;28;20048;-67
2021/11/08 00:04:13;;;;;;;17.65;2.53;;;;;;;;;;5044194;28;20045;-67
2021/11/08 00:06:41;;;;;;;13.30;2.53;;;;;;;;;;5046630;28;20130;-67
2021/11/08 00:09:07;;;;;;;22.08;2.90;;;;;;;;;;5044359;28;20084;-67
2021/11/08 00:11:34;;;;;;;19.70;2.58;;;;;;;;;;5051107;28;20273;-67
2021/11/08 00:14:00;;;;;;;15.00;2.88;;;;;;;;;;5050801;28;20396;-67
2021/11/08 00:16:33;;;;;;;23.08;2.67;;;;;;;;;;5045727;28;20457;-67
2021/11/08 00:21:32;;;;;;;21.42;2.28;;;;;;;;;;5048344;28;20384;-67
2021/11/08 00:23:59;;;;;;;11.65;2.28;;;;;;;;;;5051007;28;20099;-67
2021/11/08 00:26:25;;;;;;;15.63;2.17;;;;;;;;;;5044533;28;20056;-67
2021/11/08 00:28:52;;;;;;;15.32;2.38;;;;;;;;;;5050851;28;20049;-67
2021/11/08 00:31:18;;;;;;;19.60;4.03;;;;;;;;;;5045332;28;21697;-67
2021/11/08 00:33:44;;;;;;;17.40;2.92;;;;;;;;;;5045857;28;20125;-67
2021/11/08 00:36:11;;;;;;;18.83;2.38;;;;;;;;;;5048154;28;20451;-67
2021/11/08 00:38:38;;;;;;;16.27;2.03;;;;;;;;;;5048909;28;20033;-67
2021/11/08 00:41:05;;;;;;;15.25;2.53;;;;;;;;;;5049679;28;20040;-67
2021/11/08 00:43:32;;;;;;;16.48;2.78;;;;;;;;;;5047366;28;20055;-67
2021/11/08 00:45:59;;;;;;;19.00;2.70;;;;;;;;;;5081432;28;20056;-67
2021/11/08 00:48:30;;;;;;;14.40;2.67;;;;;;;;;;5050621;28;20485;-67
2021/11/08 00:50:56;;;;;;;20.27;2.65;;;;;;;;;;5048069;28;20114;-67
2021/11/08 00:53:22;;;;;;;22.33;3.38;;;;;;;;;;5052311;28;20076;-67
2021/11/08 00:55:49;;;;;;;22.02;3.10;;;;;;;;;;5045405;28;20048;-67
2021/11/08 00:58:24;;;;;;;20.98;4.00;;;;;;;;;;5051665;28;20358;-67
2021/11/08 01:00:51;;;;;;;20.75;2.83;;;;;;;;;;5047073;28;20053;-67
2021/11/08 01:03:20;;;;;;;16.02;3.05;;;;;;;;;;5041695;28;20437;-67
2021/11/08 01:05:46;;;;;;;12.38;2.30;;;;;;;;;;5045324;28;20045;-67
2021/11/08 01:08:13;;;;;;;17.45;3.67;;;;;;;;;;5047529;28;20167;-67
2021/11/08 01:10:39;;;;;;;12.60;2.55;;;;;;;;;;5045473;28;21246;-67
2021/11/08 01:13:05;;;;;;;16.35;2.95;;;;;;;;;;5035579;28;20037;-67
2021/11/08 01:15:31;;;;;;;16.85;2.83;;;;;;;;;;5050099;28;20053;-67
2021/11/08 01:17:58;;;;;;;10.52;2.42;;;;;;;;;;5049440;28;20478;-67
2021/11/08 01:20:31;;;;;;;13.80;2.10;;;;;;;;;;5050551;28;20132;-67
2021/11/08 01:22:57;;;;;;;10.00;2.13;;;;;;;;;;5076916;28;20099;-67
2021/11/08 01:25:24;;;;;;;15.57;1.92;;;;;;;;;;5048872;28;20447;-66
2021/11/08 01:27:54;;;;;;;13.65;2.22;;;;;;;;;;5048656;28;20122;-67
2021/11/08 01:30:24;;;;;;;9.75;1.75;;;;;;;;;;5049964;28;20044;-66
2021/11/08 01:32:56;;;;;;;19.75;3.33;;;;;;;;;;5045750;28;20041;-66
2021/11/08 01:35:30;;;;;;;10.77;1.90;;;;;;;;;;5048357;28;20088;-67
2021/11/08 01:38:04;;;;;;;12.43;2.00;;;;;;;;;;5041734;28;20052;-66
2021/11/08 01:40:32;;;;;;;15.23;2.17;;;;;;;;;;5046806;28;20073;-66
2021/11/08 01:42:58;;;;;;;14.77;2.00;;;;;;;;;;5049638;28;20043;-66
2021/11/08 01:45:24;;;;;;;15.15;2.83;;;;;;;;;;5045732;28;20091;-66
2021/11/08 01:47:51;;;;;;;16.88;4.30;;;;;;;;;;5045733;28;20040;-66
2021/11/08 01:50:17;;;;;;;15.60;1.95;;;;;;;;;;5046039;28;20113;-66
2021/11/08 01:52:43;;;;;;;8.77;1.80;;;;;;;;;;5042960;28;20046;-67
2021/11/08 01:55:10;;;;;;;15.80;3.00;;;;;;;;;;5049912;28;20147;-66
2021/11/08 01:57:37;;;;;;;16.50;2.42;;;;;;;;;;5031701;28;20466;-66
2021/11/08 02:00:07;;;;;;;13.63;1.88;;;;;;;;;;5049118;28;20515;-66
2021/11/08 02:02:34;;;;;;;13.35;2.40;;;;;;;;;;5049102;28;20048;-66
2021/11/08 02:05:01;;;;;;;18.05;1.98;;;;;;;;;;5042444;28;20524;-66
2021/11/08 02:07:28;;;;;;;11.88;2.03;;;;;;;;;;5044354;28;20037;-66
2021/11/08 02:09:55;;;;;;;15.70;2.92;;;;;;;;;;5048729;28;20041;-66
2021/11/08 02:12:21;;;;;;;24.27;3.15;;;;;;;;;;5046070;28;20041;-66
2021/11/08 02:14:48;;;;;;;25.63;3.17;;;;;;;;;;5047592;28;20125;-66
2021/11/08 02:17:15;;;;;;;21.20;3.10;;;;;;;;;;5045512;28;20487;-66
2021/11/08 02:19:41;;;;;;;22.10;3.13;;;;;;;;;;5048984;28;20041;-66
2021/11/08 02:22:08;;;;;;;20.23;3.28;;;;;;;;;;5074521;28;20128;-67
2021/11/08 02:24:36;;;;;;;34.35;3.05;;;;;;;;;;5038095;28;20049;-67
2021/11/08 02:27:03;;;;;;;25.40;3.72;;;;;;;;;;5076918;28;20488;-67
2021/11/08 02:29:30;;;;;;;16.02;2.38;;;;;;;;;;5049795;28;20099;-67
2021/11/08 02:31:58;;;;;;;17.38;2.78;;;;;;;;;;5047386;28;20095;-67
2021/11/08 02:34:24;;;;;;;19.30;2.72;;;;;;;;;;5063883;28;20489;-67
2021/11/08 02:36:50;;;;;;;14.77;2.17;;;;;;;;;;5048594;28;20049;-67
2021/11/08 02:39:25;;;;;;;21.48;2.58;;;;;;;;;;5047135;28;20496;-66
2021/11/08 02:41:51;;;;;;;13.25;2.58;;;;;;;;;;5040426;28;20132;-67
2021/11/08 02:44:17;;;;;;;18.92;3.90;;;;;;;;;;5043505;28;20047;-66
2021/11/08 02:46:43;;;;;;;21.42;2.35;;;;;;;;;;5046089;28;20044;-66
2021/11/08 02:49:13;;;;;;;20.55;3.22;;;;;;;;;;5047611;28;20591;-66
2021/11/08 02:51:45;;;;;;;17.50;2.90;;;;;;;;;;5047163;28;20804;-67
2021/11/08 02:54:22;;;;;;;18.15;2.60;;;;;;;;;;5047204;28;20091;-66
2021/11/08 02:56:49;;;;;;;21.88;2.58;;;;;;;;;;5046141;28;20123;-66
2021/11/08 02:59:15;;;;;;;18.70;2.83;;;;;;;;;;5043847;28;20116;-67
2021/11/08 03:01:43;;;;;;;17.10;2.50;;;;;;;;;;5046398;28;20041;-66
2021/11/08 03:04:15;;;;;;;16.30;2.28;;;;;;;;;;5049436;28;20060;-67
2021/11/08 03:06:41;;;;;;;16.38;2.78;;;;;;;;;;5041438;28;20124;-66
2021/11/08 03:09:16;;;;;;;14.82;1.67;;;;;;;;;;5040467;28;20041;-67
2021/11/08 03:11:43;;;;;;;;;;;;;;;;;;5045069;28;20057;-66
2021/11/08 03:14:14;;;;;;;17.40;3.20;;;;;;;;;;5038808;28;20281;-66
2021/11/08 03:19:17;;;;;;;18.15;3.40;;;;;;;;;;5043176;28;20045;-67
2021/11/08 03:21:44;;;;;;;15.80;2.10;;;;;;;;;;5044142;28;20152;-67
2021/11/08 03:24:15;;;;;;;13.93;1.83;;;;;;;;;;5049212;28;20416;-67
2021/11/08 03:26:48;;;;;;;20.67;3.30;;;;;;;;;;5047230;28;20053;-67
2021/11/08 03:29:15;;;;;;;14.95;2.15;;;;;;;;;;5049170;28;20397;-67
2021/11/08 03:31:42;;;;;;;14.25;2.22;;;;;;;;;;5043533;28;20045;-67
2021/11/08 03:34:09;;;;;;;23.08;2.88;;;;;;;;;;5044465;28;20398;-66
2021/11/08 03:36:36;;;;;;;15.05;2.42;;;;;;;;;;5049752;28;20119;-67
2021/11/08 03:39:03;;;;;;;16.40;1.67;;;;;;;;;;5049384;28;20053;-67
2021/11/08 03:41:31;;;;;;;14.98;2.67;;;;;;;;;;5052677;28;20037;-66
2021/11/08 03:43:58;;;;;;;22.45;3.17;;;;;;;;;;5048288;28;20045;-67
2021/11/08 03:46:24;;;;;;;16.92;2.03;;;;;;;;;;5049747;28;20040;-67
2021/11/08 03:48:50;;;;;;;16.30;1.92;;;;;;;;;;5046817;28;20470;-67
2021/11/08 03:51:17;;;;;;;13.48;3.00;;;;;;;;;;5051934;28;20044;-67
2021/11/08 03:53:43;;;;;;;12.60;1.50;;;;;;;;;;5053045;28;20053;-67
2021/11/08 03:56:09;;;;;;;10.45;2.00;;;;;;;;;;5045940;28;20049;-67
2021/11/08 03:58:36;;;;;;;20.80;2.78;;;;;;;;;;5053334;28;20032;-66
2021/11/08 04:01:03;;;;;;;15.27;2.13;;;;;;;;;;5046353;28;20128;-67
2021/11/08 04:03:30;;;;;;;13.13;1.98;;;;;;;;;;5048333;28;20049;-67
2021/11/08 04:05:56;;;;;;;9.20;1.35;;;;;;;;;;5049256;28;20068;-66
2021/11/08 04:08:23;;;;;;;13.48;2.13;;;;;;;;;;5050411;28;20041;-67
2021/11/08 04:10:52;;;;;;;11.23;2.03;;;;;;;;;;5043526;28;20046;-67
2021/11/08 04:13:19;;;;;;;11.07;1.88;;;;;;;;;;5046938;28;20037;-67
2021/11/08 04:15:47;;;;;;;10.68;2.10;;;;;;;;;;5048196;28;20053;-67
2021/11/08 04:18:15;;;;;;;7.57;1.42;;;;;;;;;;5049764;28;20187;-67
2021/11/08 04:20:43;;;;;;;14.88;1.88;;;;;;;;;;5044805;28;20132;-66
2021/11/08 04:23:10;;;;;;;7.07;1.52;;;;;;;;;;5048606;28;20575;-67
2021/11/08 04:25:37;;;;;;;11.85;2.03;;;;;;;;;;5050801;28;20107;-67
2021/11/08 04:28:03;;;;;;;11.13;1.75;;;;;;;;;;5051158;28;20429;-66
2021/11/08 04:30:31;;;;;;;12.70;2.03;;;;;;;;;;5049698;28;20049;-67
2021/11/08 04:35:37;;;;;;;18.35;2.33;;;;;;;;;;5039435;28;20493;-67
2021/11/08 04:38:13;;;;;;;15.48;2.15;;;;;;;;;;5029894;28;20527;-66
2021/11/08 04:40:47;;;;;;;22.50;2.88;;;;;;;;;;5026386;28;20049;-66
2021/11/08 04:43:44;;;;;;;16.00;2.47;;;;;;;;;;5047316;28;20058;-67
2021/11/08 04:48:54;;;;;;;12.27;1.85;;;;;;;;;;5043835;28;20136;-66
2021/11/08 04:51:34;;;;;;;16.80;2.38;;;;;;;;;;5047822;28;20519;-66
2021/11/08 04:56:50;;;;;;;19.08;2.55;;;;;;;;;;5049201;28;20093;-66
2021/11/08 05:24:23;;;;;;;22.27;2.70;;;;;;;;;;5047722;28;20049;-67
2021/11/08 05:32:22;;;;;;;15.52;2.00;;;;;;;;;;5049018;28;20526;-66
2021/11/08 05:34:48;;;;;;;18.45;2.67;;;;;;;;;;5080205;28;20354;-67
2021/11/08 05:37:15;;;;;;;14.93;3.03;;;;;;;;;;5073118;28;20045;-67
2021/11/08 05:39:48;;;;;;;17.50;2.70;;;;;;;;;;5050914;28;20048;-66
2021/11/08 05:42:14;;;;;;;18.15;2.80;;;;;;;;;;5042400;28;20064;-67
2021/11/08 05:44:41;;;;;;;21.08;2.70;;;;;;;;;;5042920;28;20496;-66
2021/11/08 05:47:07;;;;;;;10.23;2.22;;;;;;;;;;5039576;28;20048;-66
2021/11/08 05:49:34;;;;;;;19.95;2.50;;;;;;;;;;5034610;28;20229;-66
2021/11/08 05:52:02;;;;;;;19.70;2.67;;;;;;;;;;5033919;28;20056;-67
2021/11/08 05:54:29;;;;;;;22.98;2.78;;;;;;;;;;5047193;28;20037;-66
2021/11/08 06:00:27;;;;;;;15.35;2.80;;;;;;;;;;5037871;28;20076;-67
2021/11/08 06:49:48;;;;;;;32.30;3.90;;;;;;;;;;5075340;28;20468;-65
2021/11/08 06:52:14;;;;;;;25.08;3.53;;;;;;;;;;5046914;28;20520;-66
2021/11/08 06:54:44;;;;;;;24.33;2.50;;;;;;;;;;5045296;28;20072;-66
2021/11/08 06:57:14;;;;;;;22.63;2.80;;;;;;;;;;5039667;28;20064;-66
2021/11/08 06:59:41;;;;;;;11.55;2.30;;;;;;;;;;5065439;28;20507;-66
2021/11/08 07:02:08;;;;;;;15.23;2.88;;;;;;;;;;5037751;28;20080;-66
2021/11/08 07:04:34;;;;;;;11.82;2.13;;;;;;;;;;5048111;28;20052;-66
2021/11/08 07:07:01;;;;;;;14.65;2.47;;;;;;;;;;5037225;28;20113;-66
2021/11/08 07:09:27;;;;;;;11.90;2.03;;;;;;;;;;5044881;28;20045;-66
2021/11/08 07:11:54;;;;;;;14.75;2.30;;;;;;;;;;5048694;28;20060;-66
2021/11/08 07:14:20;;;;;;;18.35;2.28;;;;;;;;;;5049084;28;20041;-66
2021/11/08 07:16:46;;;;;;;17.38;3.00;;;;;;;;;;5049763;28;20053;-65
2021/11/08 07:19:14;;;;;;;18.52;2.70;;;;;;;;;;5046838;28;20052;-66
2021/11/08 07:21:40;;;;;;;20.45;2.70;;;;;;;;;;5046699;28;20124;-66
2021/11/08 07:24:06;;;;;;;23.23;3.42;;;;;;;;;;5054631;28;20044;-65
2021/11/08 07:26:32;;;;;;;16.63;2.10;;;;;;;;;;5054866;28;20047;-65
2021/11/08 07:28:59;;;;;;;28.52;2.50;;;;;;;;;;5054353;28;20033;-65
2021/11/08 07:31:25;;;;;;;24.75;3.20;;;;;;;;;;5053865;28;20044;-65
2021/11/08 07:33:51;;;;;;;22.35;2.83;;;;;;;;;;5054489;28;20123;-65
2021/11/08 07:36:17;;;;;;;14.55;2.05;;;;;;;;;;5053281;28;20045;-65
2021/11/08 07:38:44;;;;;;;16.77;2.75;;;;;;;;;;5054744;28;20393;-74
2021/11/08 07:41:11;;;;;;;15.63;2.08;;;;;;;;;;5053023;28;20110;-65
2021/11/08 07:43:39;;;;;;;18.73;2.22;;;;;;;;;;5047623;28;20041;-65
2021/11/08 07:46:05;;;;;;;14.23;2.15;;;;;;;;;;5044346;28;20041;-65
2021/11/08 07:48:32;;;;;;;26.08;3.42;;;;;;;;;;5048344;28;20124;-65
2021/11/08 07:50:58;;;;;;;19.35;4.13;;;;;;;;;;5050903;28;20136;-65
2021/11/08 07:53:25;;;;;;;23.08;2.63;;;;;;;;;;5050810;28;20037;-65
2021/11/08 07:55:51;;;;;;;23.20;4.05;;;;;;;;;;5049415;28;20068;-66
2021/11/08 07:58:17;;;;;;;18.33;3.03;;;;;;;;;;5048799;28;20116;-65
2021/11/08 08:00:45;;;;;;;19.55;2.72;;;;;;;;;;5045586;28;20049;-66
2021/11/08 08:03:12;;;;;;;23.58;3.13;;;;;;;;;;5045831;28;20064;-70
2021/11/08 08:05:38;;;;;;;27.20;3.85;;;;;;;;;;5048823;28;20068;-68
2021/11/08 08:08:04;;;;;;;28.15;3.40;;;;;;;;;;5049083;28;20040;-68
2021/11/08 08:10:31;;;;;;;16.52;2.95;;;;;;;;;;5047734;28;20040;-66
2021/11/08 08:12:57;;;;;;;29.42;2.95;;;;;;;;;;5049440;28;20539;-68
2021/11/08 08:15:23;;;;;;;23.17;3.17;;;;;;;;;;5045360;28;20127;-65
2021/11/08 08:17:50;;;;;;;26.92;3.55;;;;;;;;;;5046813;28;20481;-65
2021/11/08 08:20:17;;;;;;;30.05;4.25;;;;;;;;;;5047538;28;20056;-66
2021/11/08 08:22:44;;;;;;;24.27;3.40;;;;;;;;;;5048865;28;20033;-65
2021/11/08 08:25:10;;;;;;;31.35;5.13;;;;;;;;;;5048537;28;20138;-65
2021/11/08 08:27:37;;;;;;;24.77;3.88;;;;;;;;;;5048150;28;20045;-65
2021/11/08 08:30:04;;;;;;;25.35;3.42;;;;;;;;;;5047545;28;20044;-65
2021/11/08 08:32:31;;;;;;;29.42;3.53;;;;;;;;;;5034465;28;20080;-65
2021/11/08 08:34:57;;;;;;;24.83;4.10;;;;;;;;;;5052366;28;20029;-66
2021/11/08 08:37:23;;;;;;;25.52;3.58;;;;;;;;;;5049931;28;20051;-65
2021/11/08 08:39:51;;;;;;;27.73;5.65;;;;;;;;;;5046133;28;20053;-65
2021/11/08 08:42:17;;;;;;;28.77;4.00;;;;;;;;;;5051696;28;20124;-65
2021/11/08 08:44:44;;;;;;;22.88;3.63;;;;;;;;;;5049739;28;20045;-65
2021/11/08 08:47:10;;;;;;;28.02;3.65;;;;;;;;;;5049848;28;20040;-65
2021/11/08 08:49:37;;;;;;;24.42;3.60;;;;;;;;;;5050029;28;20388;-65
2021/11/08 08:52:03;;;;;;;21.50;3.25;;;;;;;;;;5049970;28;20427;-65
2021/11/08 08:54:29;;;;;;;29.80;3.15;;;;;;;;;;5050118;28;20037;-65
2021/11/08 08:56:56;;;;;;;28.45;3.40;;;;;;;;;;5046569;28;20419;-65
2021/11/08 08:59:22;;;;;;;23.23;3.03;;;;;;;;;;5047146;28;20061;-66
2021/11/08 09:01:49;;;;;;;24.50;3.47;;;;;;;;;;5047318;28;20044;-67
2021/11/08 09:04:16;;;;;;;26.27;3.30;;;;;;;;;;5046698;28;20520;-66
2021/11/08 09:06:42;;;;;;;23.65;4.22;;;;;;;;;;5049718;28;20057;-66
2021/11/08 09:09:08;;;;;;;21.08;3.10;;;;;;;;;;5049163;28;20389;-65
2021/11/08 09:11:34;;;;;;;21.40;3.75;;;;;;;;;;5046053;28;20041;-66
2021/11/08 09:14:01;;;;;;;22.23;3.80;;;;;;;;;;5048246;28;20128;-66
2021/11/08 09:16:29;;;;;;;26.58;3.47;;;;;;;;;;5049647;28;20044;-65
2021/11/08 09:18:55;;;;;;;24.67;3.80;;;;;;;;;;5049214;28;20194;-65
2021/11/08 09:21:23;;;;;;;24.38;3.90;;;;;;;;;;5047112;28;20484;-65
2021/11/08 09:23:49;;;;;;;15.02;2.08;;;;;;;;;;5048110;28;20140;-65
2021/11/08 09:26:17;;;;;;;15.13;2.42;;;;;;;;;;5039848;28;20067;-65
2021/11/08 09:28:43;;;;;;;16.45;2.20;;;;;;;;;;5047774;28;20444;-65
2021/11/08 09:31:10;;;;;;;22.40;2.90;;;;;;;;;;5049468;28;20041;-65
2021/11/08 09:33:36;;;;;;;15.93;2.45;;;;;;;;;;5059890;28;20041;-65
2021/11/08 09:36:06;;;;;;;17.23;2.13;;;;;;;;;;5050877;28;20049;-65
2021/11/08 09:38:33;;;;;;;19.10;2.55;;;;;;;;;;5053844;28;20049;-65
2021/11/08 09:41:00;;;;;;;16.90;2.38;;;;;;;;;;5050929;28;20420;-65
2021/11/08 09:43:28;;;;;;;20.25;2.45;;;;;;;;;;5051817;28;20047;-73
2021/11/08 09:45:55;;;;;;;15.13;2.28;;;;;;;;;;5050621;28;20479;-66
2021/11/08 09:48:22;;;;;;;17.98;2.40;;;;;;;;;;5049453;28;20045;-66
2021/11/08 09:50:49;;;;;;;12.75;2.00;;;;;;;;;;5051357;28;20578;-70
2021/11/08 09:53:16;;;;;;;21.90;3.00;;;;;;;;;;5050656;28;20445;-66
2021/11/08 09:55:44;;;;;;;10.20;1.77;;;;;;;;;;5048390;28;20625;-66
2021/11/08 09:58:11;;;;;;;14.38;2.13;;;;;;;;;;5051101;28;20051;-66
2021/11/08 10:00:38;;;;;;;14.57;1.65;;;;;;;;;;5050384;28;20128;-66
2021/11/08 10:03:05;;;;;;;9.43;0.90;;;;;;;;;;5049448;28;20102;-66
2021/11/08 10:05:33;;;;;;;7.60;1.38;;;;;;;;;;5048961;28;20056;-66
2021/11/08 10:08:00;;;;;;;5.53;0.57;;;;;;;;;;5050474;28;20511;-66
2021/11/08 10:10:28;;;;;;;8.13;1.48;;;;;;;;;;5048394;28;20045;-66
2021/11/08 10:13:03;;;;;;;10.30;1.73;;;;;;;;;;5050291;28;20411;-66
2021/11/08 10:15:30;;;;;;;10.10;1.63;;;;;;;;;;5048369;28;20526;-66
2021/11/08 10:17:56;;;;;;;11.57;1.30;;;;;;;;;;5048947;28;20067;-66
2021/11/08 10:20:31;;;;;;;11.07;1.95;;;;;;;;;;5047890;28;20098;-75
2021/11/08 10:22:58;;;;;;;8.93;1.75;;;;;;;;;;5049967;28;20181;-67
2021/11/08 10:25:24;;;;;;;9.20;1.50;;;;;;;;;;5050003;28;20060;-67
2021/11/08 10:27:52;;;;;;;11.10;1.33;;;;;;;;;;5048806;28;20057;-67
2021/11/08 10:30:24;;;;;;;13.65;1.77;;;;;;;;;;5031995;28;20036;-68
2021/11/08 10:33:13;;;;;;;16.02;1.55;;;;;;;;;;5049860;28;20055;-68
2021/11/08 10:35:42;;;;;;;18.33;2.55;;;;;;;;;;5052399;28;20397;-67
2021/11/08 10:38:09;;;;;;;20.55;2.17;;;;;;;;;;5049591;28;20389;-67
2021/11/08 10:40:42;;;;;;;19.13;2.20;;;;;;;;;;5049524;28;20167;-67
2021/11/08 10:43:08;;;;;;;21.20;3.13;;;;;;;;;;5041413;28;20120;-72
2021/11/08 10:45:37;;;;;;;16.77;2.85;;;;;;;;;;5070405;28;20479;-75
2021/11/08 10:48:04;;;;;;;20.98;3.92;;;;;;;;;;5049311;28;20056;-68
2021/11/08 10:50:41;;;;;;;25.52;4.32;;;;;;;;;;5041973;28;20049;-67
2021/11/08 10:53:07;;;;;;;26.42;3.22;;;;;;;;;;5072770;28;20045;-68
2021/11/08 10:55:34;;;;;;;23.65;3.47;;;;;;;;;;5040536;28;20061;-68
2021/11/08 10:58:08;;;;;;;21.90;3.15;;;;;;;;;;5040917;28;20049;-69
2021/11/08 11:00:45;;;;;;;22.05;3.50;;;;;;;;;;5067381;28;20055;-68
2021/11/08 11:03:13;;;;;;;21.02;3.63;;;;;;;;;;5043037;28;20056;-68
2021/11/08 11:05:42;;;;;;;22.10;2.88;;;;;;;;;;5068000;28;20072;-68
2021/11/08 11:08:14;;;;;;;18.73;2.75;;;;;;;;;;5041696;28;20094;-67
2021/11/08 11:10:42;;;;;;;22.83;2.95;;;;;;;;;;5067201;28;20128;-66
2021/11/08 11:13:12;;;;;;;25.35;3.40;;;;;;;;;;5043098;28;20042;-66
2021/11/08 11:15:43;;;;;;;23.30;2.80;;;;;;;;;;5041531;28;20397;-66
2021/11/08 11:18:11;;;;;;;24.55;2.50;;;;;;;;;;5041283;28;20133;-66
2021/11/08 11:20:39;;;;;;;25.80;3.42;;;;;;;;;;5039092;28;20053;-66
2021/11/08 11:23:12;;;;;;;23.42;2.67;;;;;;;;;;5041511;28;20037;-66
2021/11/08 11:25:40;;;;;;;26.77;2.83;;;;;;;;;;5042101;28;20374;-66
2021/11/08 11:28:07;;;;;;;15.68;2.80;;;;;;;;;;5050575;28;20041;-66
2021/11/08 11:30:36;;;;;;;25.23;3.67;;;;;;;;;;5041295;28;20087;-66
2021/11/08 11:33:06;;;;;;;19.52;2.45;;;;;;;;;;5041334;28;20182;-66
2021/11/08 11:35:33;;;;;;;22.45;3.70;;;;;;;;;;5041438;28;20539;-67
2021/11/08 11:38:02;;;;;;;19.67;3.42;;;;;;;;;;5038165;28;20503;-66
2021/11/08 11:40:30;;;;;;;21.42;4.03;;;;;;;;;;5038805;28;20053;-66
2021/11/08 11:42:57;;;;;;;17.90;3.05;;;;;;;;;;5040106;28;20496;-66
2021/11/08 11:45:24;;;;;;;20.10;3.72;;;;;;;;;;5039448;28;20057;-66
2021/11/08 11:47:56;;;;;;;19.45;3.95;;;;;;;;;;5040843;28;20064;-67
2021/11/08 11:50:24;;;;;;;22.25;2.67;;;;;;;;;;5040040;28;20080;-66
2021/11/08 11:52:50;;;;;;;19.85;2.53;;;;;;;;;;5042443;28;20045;-66
2021/11/08 11:55:17;;;;;;;17.45;2.78;;;;;;;;;;5044785;28;20056;-66
2021/11/08 11:57:43;;;;;;;20.83;2.67;;;;;;;;;;5049408;28;20076;-66
2021/11/08 12:00:10;;;;;;;15.30;3.05;;;;;;;;;;5045656;28;20041;-66
2021/11/08 12:02:37;;;;;;;20.58;3.63;;;;;;;;;;5045208;28;20052;-66
2021/11/08 12:05:04;;;;;;;17.27;3.22;;;;;;;;;;5045253;28;20420;-66
2021/11/08 12:07:30;;;;;;;25.48;2.95;;;;;;;;;;5049786;28;20090;-66
2021/11/08 12:09:57;;;;;;;17.58;2.40;;;;;;;;;;5044440;28;20052;-66
2021/11/08 12:12:25;;;;;;;15.30;2.40;;;;;;;;;;5043690;28;20087;-66
2021/11/08 12:14:57;;;;;;;24.98;2.85;;;;;;;;;;5070103;28;20052;-66
2021/11/08 12:17:25;;;;;;;18.50;2.88;;;;;;;;;;5041833;28;20099;-66
2021/11/08 12:20:02;;;;;;;15.90;2.42;;;;;;;;;;5074264;28;20040;-66
2021/11/08 12:22:29;;;;;;;19.67;2.42;;;;;;;;;;5042988;28;20104;-66
2021/11/08 12:25:00;;;;;;;17.00;2.28;;;;;;;;;;5043247;28;20516;-65
2021/11/08 12:27:35;;;;;;;13.07;2.25;;;;;;;;;;5041836;28;20037;-65
2021/11/08 12:30:07;;;;;;;17.73;2.63;;;;;;;;;;5042143;28;20084;-66
2021/11/08 12:32:41;;;;;;;12.65;2.25;;;;;;;;;;5041476;28;20033;-66
2021/11/08 12:35:13;;;;;;;16.25;2.72;;;;;;;;;;5043515;28;20041;-66
2021/11/08 12:37:39;;;;;;;14.98;2.40;;;;;;;;;;5040932;28;20423;-66
2021/11/08 12:40:06;;;;;;;15.52;2.22;;;;;;;;;;5036261;28;20041;-66
2021/11/08 12:42:37;;;;;;;13.57;1.80;;;;;;;;;;5029658;28;20045;-66
2021/11/08 12:45:09;;;;;;;11.07;1.60;;;;;;;;;;5023585;28;20077;-66
2021/11/08 12:47:36;;;;;;;12.27;2.08;;;;;;;;;;5036615;28;20050;-66
2021/11/08 12:50:02;;;;;;;14.18;2.00;;;;;;;;;;5041992;28;20487;-66
2021/11/08 12:52:31;;;;;;;10.25;1.55;;;;;;;;;;5044220;28;20067;-66
2021/11/08 12:55:01;;;;;;;16.30;2.55;;;;;;;;;;5043097;28;20037;-66
2021/11/08 12:57:28;;;;;;;12.65;2.15;;;;;;;;;;5044536;28;20127;-66
2021/11/08 12:59:56;;;;;;;11.35;1.83;;;;;;;;;;5045499;28;20103;-66
2021/11/08 13:02:32;;;;;;;16.15;1.92;;;;;;;;;;5043180;28;20460;-66
2021/11/08 13:05:00;;;;;;;13.35;2.53;;;;;;;;;;5046937;28;20080;-66
2021/11/08 13:07:35;;;;;;;13.15;2.95;;;;;;;;;;5043479;28;20489;-66
2021/11/08 13:10:03;;;;;;;11.32;1.73;;;;;;;;;;5041412;28;20527;-66
2021/11/08 13:12:30;;;;;;;10.95;1.45;;;;;;;;;;5046365;28;20052;-66
2021/11/08 13:15:10;;;;;;;8.93;1.40;;;;;;;;;;5047930;28;20075;-66
2021/11/08 13:17:44;;;;;;;12.27;1.73;;;;;;;;;;5047838;28;20556;-66
2021/11/08 13:20:11;;;;;;;12.15;1.83;;;;;;;;;;5045899;28;20059;-66
2021/11/08 13:22:40;;;;;;;13.98;2.00;;;;;;;;;;5045067;28;20045;-66
2021/11/08 13:25:07;;;;;;;14.20;1.90;;;;;;;;;;5044548;28;20470;-65
2021/11/08 13:27:34;;;;;;;14.57;2.25;;;;;;;;;;5045981;28;20382;-66
2021/11/08 13:30:01;;;;;;;14.05;3.00;;;;;;;;;;5045432;28;20041;-66
2021/11/08 13:32:29;;;;;;;6.35;1.65;;;;;;;;;;5046172;28;20108;-66
2021/11/08 13:34:57;;;;;;;12.43;1.33;;;;;;;;;;5045168;28;20049;-66
2021/11/08 13:37:33;;;;;;;9.82;1.70;;;;;;;;;;5062119;28;20052;-66
2021/11/08 13:40:01;;;;;;;15.25;1.88;;;;;;;;;;5038048;28;20064;-66
2021/11/08 13:42:28;;;;;;;16.45;2.25;;;;;;;;;;5038529;28;20060;-66
2021/11/08 13:45:00;;;;;;;9.18;1.75;;;;;;;;;;5048862;28;20479;-66
2021/11/08 13:47:28;;;;;;;12.27;2.15;;;;;;;;;;5046616;28;20049;-66
2021/11/08 13:49:54;;;;;;;10.98;1.30;;;;;;;;;;5045107;28;20093;-66
2021/11/08 13:52:20;;;;;;;9.73;1.75;;;;;;;;;;5048556;28;20131;-66
2021/11/08 13:54:47;;;;;;;9.88;1.80;;;;;;;;;;5041449;28;20053;-66
2021/11/08 13:57:16;;;;;;;8.55;1.65;;;;;;;;;;5046734;28;20365;-66
2021/11/08 13:59:45;;;;;;;20.85;2.03;;;;;;;;;;5042833;28;20045;-66
2021/11/08 14:02:12;;;;;;;14.70;1.60;;;;;;;;;;5060001;28;20409;-66
2021/11/08 14:04:40;;;;;;;14.38;1.55;;;;;;;;;;5042411;28;20412;-65
2021/11/08 14:07:07;;;;;;;14.10;1.88;;;;;;;;;;5040355;28;20068;-66
2021/11/08 14:09:34;;;;;;;12.18;1.60;;;;;;;;;;5038945;28;20041;-65
2021/11/08 14:12:02;;;;;;;9.73;1.65;;;;;;;;;;5048395;28;20397;-66
2021/11/08 14:14:30;;;;;;;9.27;1.70;;;;;;;;;;5041189;28;20052;-65
2021/11/08 14:17:08;;;;;;;14.43;2.83;;;;;;;;;;5044525;28;20072;-66
2021/11/08 14:19:34;;;;;;;13.52;2.03;;;;;;;;;;5042453;28;20558;-66
2021/11/08 14:22:00;;;;;;;11.73;1.73;;;;;;;;;;5046375;28;20095;-66
2021/11/08 14:24:27;;;;;;;11.07;1.27;;;;;;;;;;5044029;28;20410;-66
2021/11/08 14:26:55;;;;;;;17.02;2.60;;;;;;;;;;5040008;28;20443;-66
2021/11/08 14:29:24;;;;;;;12.90;1.90;;;;;;;;;;5046422;28;20036;-65
2021/11/08 14:31:54;;;;;;;8.38;1.67;;;;;;;;;;5047333;28;20404;-65
2021/11/08 14:34:24;;;;;;;7.95;1.45;;;;;;;;;;5075386;28;20041;-66
2021/11/08 14:36:52;;;;;;;10.43;1.67;;;;;;;;;;5048529;28;20053;-66
2021/11/08 14:39:21;;;;;;;9.55;1.60;;;;;;;;;;5047580;28;20520;-65
2021/11/08 14:42:00;;;;;;;9.18;1.70;;;;;;;;;;5045897;28;20503;-66
2021/11/08 14:44:35;;;;;;;10.15;1.55;;;;;;;;;;5047544;28;20048;-66
2021/11/08 14:47:07;;;;;;;12.60;1.83;;;;;;;;;;5041976;28;20064;-65
2021/11/08 14:49:33;;;;;;;9.95;1.75;;;;;;;;;;5047494;28;20444;-66
2021/11/08 14:52:03;;;;;;;11.25;1.67;;;;;;;;;;5041172;28;20060;-65
2021/11/08 14:54:30;;;;;;;17.38;2.25;;;;;;;;;;5047595;28;20049;-65
2021/11/08 14:56:58;;;;;;;10.77;1.83;;;;;;;;;;5045423;28;20060;-66
2021/11/08 14:59:27;;;;;;;14.27;1.70;;;;;;;;;;5045639;28;20053;-66
2021/11/08 15:02:01;;;;;;;14.98;1.80;;;;;;;;;;5039761;28;20128;-66
2021/11/08 15:04:27;;;;;;;11.55;2.83;;;;;;;;;;5038152;28;20047;-65
2021/11/08 15:06:58;;;;;;;10.48;1.67;;;;;;;;;;5038497;28;20045;-66
2021/11/08 15:09:24;;;;;;;9.02;1.60;;;;;;;;;;5036896;28;20052;-66
2021/11/08 15:11:51;;;;;;;18.98;2.00;;;;;;;;;;5040888;28;20470;-66
2021/11/08 15:14:19;;;;;;;11.63;2.25;;;;;;;;;;5039401;28;20041;-65
2021/11/08 15:16:47;;;;;;;18.70;2.05;;;;;;;;;;5044455;28;20219;-65
2021/11/08 15:19:14;;;;;;;16.38;2.15;;;;;;;;;;5043109;28;20124;-65
2021/11/08 15:21:40;;;;;;;15.60;1.73;;;;;;;;;;5038094;28;20468;-65
2021/11/08 15:24:08;;;;;;;11.05;1.95;;;;;;;;;;5046197;28;20069;-65
2021/11/08 15:26:35;;;;;;;10.93;1.80;;;;;;;;;;5078243;28;20102;-66
2021/11/08 15:29:08;;;;;;;11.80;2.42;;;;;;;;;;5046215;28;20067;-65
2021/11/08 15:31:34;;;;;;;13.98;1.88;;;;;;;;;;5045822;28;20045;-65
2021/11/08 15:34:06;;;;;;;13.98;1.98;;;;;;;;;;5047719;28;20049;-65
2021/11/08 15:36:39;;;;;;;9.82;1.88;;;;;;;;;;5045317;28;20098;-65
2021/11/08 15:39:09;;;;;;;7.45;1.05;;;;;;;;;;5042490;28;20129;-65
2021/11/08 15:41:36;;;;;;;12.13;1.30;;;;;;;;;;5043896;28;20415;-65
2021/11/08 15:44:03;;;;;;;12.50;1.55;;;;;;;;;;5042158;28;20045;-67
2021/11/08 15:46:29;;;;;;;10.10;1.83;;;;;;;;;;5039911;28;20052;-67
2021/11/08 15:48:55;;;;;;;9.15;1.42;;;;;;;;;;5030493;28;20062;-67
2021/11/08 15:51:23;;;;;;;8.23;1.60;;;;;;;;;;5049588;28;20480;-66
2021/11/08 15:53:50;;;;;;;11.73;1.77;;;;;;;;;;5042377;28;20388;-67
2021/11/08 15:56:16;;;;;;;9.07;1.65;;;;;;;;;;5070988;28;20041;-67
2021/11/08 15:58:43;;;;;;;10.80;1.20;;;;;;;;;;5059734;28;20045;-66
2021/11/08 16:01:09;;;;;;;4.88;0.90;;;;;;;;;;5042400;28;20037;-67
2021/11/08 16:03:36;;;;;;;9.15;1.27;;;;;;;;;;5047486;28;20053;-67
2021/11/08 16:06:03;;;;;;;6.43;1.17;;;;;;;;;;5046281;28;20584;-67
2021/11/08 16:08:29;;;;;;;7.93;1.65;;;;;;;;;;5039601;28;20045;-67
2021/11/08 16:10:55;;;;;;;7.95;1.63;;;;;;;;;;5043525;28;20120;-67